KORS

Orcas Island Airport

Eastsound, Washington, USA
METAR KORS 280035Z AUTO 20006KT 10SM CLR 21/07 A3014 RMK AO2
Observed Flight Rules
May-28 @ 00:35 UTC (21 minutes ago) Visual Flight Rules
Wind Visibility Clouds
200° at 6 knots 10 miles
  • Clear skies
Temperatures Readings
Current 21°C / 70°F
Dewpoint 7°C / 45°F
Humidity 40%
Altimeter 30.14" Hg
Pressure 1021 hPa
Elevation 9
METAR KORS 280035Z AUTO 20006KT 10SM CLR 21/07 A3014 RMK AO2
Observed Flight Rules
May-28 @ 00:35 UTC
(21 minutes ago)
VFR
Wind Visibility
200° at 6 knots 10 miles
Clouds
  • Clear skies
Temperature Dewpoint
21°C / 70°F 7°C / 45°F
Humidity Altimeter Pressure
40% 30.14" Hg 1021 hPa